createdAt,value
2018-09-22T00:00:29.609Z,97.24
2018-09-22T00:01:29.550Z,97.33
2018-09-22T00:02:29.518Z,96.94
2018-09-22T00:03:29.463Z,96.85
2018-09-22T00:04:29.424Z,96.94
2018-09-22T00:05:29.392Z,97.62
2018-09-22T00:06:29.320Z,97.62
2018-09-22T00:07:29.269Z,97.24
2018-09-22T00:08:29.238Z,96.94
2018-09-22T00:09:29.194Z,96.66
2018-09-22T00:10:29.149Z,96.37
2018-09-22T00:11:29.108Z,97.14
2018-09-22T00:12:29.052Z,96.94
2018-09-22T00:13:29.013Z,96.56
2018-09-22T00:14:28.986Z,97.24
2018-09-22T00:15:28.903Z,96.37
2018-09-22T00:16:28.862Z,96.46
2018-09-22T00:17:28.816Z,96.56
2018-09-22T00:18:28.761Z,96.75
2018-09-22T00:19:28.726Z,96.27
2018-09-22T00:20:28.714Z,96.46
2018-09-22T00:21:28.623Z,96.37
2018-09-22T00:22:28.599Z,96.37
2018-09-22T00:23:28.557Z,96.56
2018-09-22T00:24:28.510Z,96.46
2018-09-22T00:25:28.461Z,96.75
2018-09-22T00:26:28.420Z,97.14
2018-09-22T00:27:28.370Z,96.94
2018-09-22T00:28:28.325Z,96.75
2018-09-22T00:29:28.279Z,96.75
2018-09-22T00:30:28.227Z,97.81
2018-09-22T00:31:28.189Z,97.72
2018-09-22T00:32:28.137Z,97.47
2018-09-22T00:33:28.101Z,98.15
2018-09-22T00:34:28.031Z,98.92
2018-09-22T00:35:27.994Z,98.54
2018-09-22T00:36:27.951Z,98.92
2018-09-22T00:37:27.913Z,98.24
2018-09-22T00:38:27.866Z,98.63
2018-09-22T00:39:27.826Z,99.21
2018-09-22T00:40:27.771Z,98.54
2018-09-22T00:41:27.729Z,98.24
2018-09-22T00:42:27.704Z,98.92
2018-09-22T00:43:27.633Z,98.15
2018-09-22T00:44:27.595Z,98.15
2018-09-22T00:45:27.531Z,98.34
2018-09-22T00:46:27.494Z,98.44
2018-09-22T00:47:27.454Z,98.34
2018-09-22T00:48:27.400Z,98.92
2018-09-22T00:49:27.351Z,98.72
2018-09-22T00:50:27.315Z,98.39
2018-09-22T00:51:27.251Z,98.24
2018-09-22T00:52:27.220Z,98.58
2018-09-22T00:53:27.177Z,97.91
2018-09-22T00:54:27.124Z,98.20
2018-09-22T00:55:27.104Z,97.91
2018-09-22T00:56:27.051Z,97.62
2018-09-22T00:57:26.982Z,97.81
2018-09-22T00:58:26.959Z,97.67
2018-09-22T00:59:26.897Z,97.76
2018-09-22T01:00:26.848Z,97.47
2018-09-22T01:01:26.805Z,97.86
2018-09-22T01:02:26.771Z,98.54
2018-09-22T01:03:26.707Z,98.54
2018-09-22T01:04:26.656Z,98.54
2018-09-22T01:05:26.653Z,98.24
2018-09-22T01:06:26.582Z,99.40
2018-09-22T01:07:26.535Z,99.40
2018-09-22T01:08:26.498Z,98.92
2018-09-22T01:09:26.450Z,99.69
2018-09-22T01:10:26.392Z,99.11
2018-09-22T01:11:26.355Z,99.50
2018-09-22T01:12:26.299Z,99.11
2018-09-22T01:13:26.242Z,98.44
2018-09-22T01:14:26.195Z,98.34
2018-09-22T01:15:26.223Z,98.34
2018-09-22T01:16:26.115Z,98.92
2018-09-22T01:17:26.072Z,98.82
2018-09-22T01:18:26.025Z,98.34
2018-09-22T01:19:26.034Z,98.44
2018-09-22T01:20:25.942Z,98.24
2018-09-22T01:21:25.908Z,97.91
2018-09-22T01:22:25.841Z,98.10
2018-09-22T01:23:25.793Z,97.86
2018-09-22T01:24:25.783Z,97.86
2018-09-22T01:25:25.718Z,98.44
2018-09-22T01:26:25.654Z,98.34
2018-09-22T01:27:25.609Z,98.15
2018-09-22T01:28:25.564Z,98.15
2018-09-22T01:29:25.546Z,98.82
2018-09-22T01:30:25.468Z,98.82
2018-09-22T01:31:25.420Z,98.44
2018-09-22T01:32:25.369Z,98.24
2018-09-22T01:33:25.322Z,98.39
2018-09-22T01:34:25.281Z,98.29
2018-09-22T01:35:25.267Z,98.00
2018-09-22T01:36:25.202Z,97.72
2018-09-22T01:37:25.139Z,97.47
2018-09-22T01:38:25.114Z,97.72
2018-09-22T01:39:25.061Z,97.76
2018-09-22T01:40:25.020Z,98.05
2018-09-22T01:41:24.956Z,98.44
2018-09-22T01:42:24.931Z,97.42
2018-09-22T01:43:24.863Z,97.91
2018-09-22T01:44:24.856Z,97.57
2018-09-22T01:45:24.790Z,97.67
2018-09-22T01:46:24.732Z,97.42
2018-09-22T01:47:24.691Z,96.85
2018-09-22T01:48:24.651Z,96.94
2018-09-22T01:49:24.595Z,96.37
2018-09-22T01:50:24.543Z,96.46
2018-09-22T01:51:24.500Z,96.27
2018-09-22T01:52:24.485Z,96.32
2018-09-22T01:53:24.416Z,96.56
2018-09-22T01:54:24.390Z,96.61
2018-09-22T01:55:24.338Z,96.27
2018-09-22T01:56:24.308Z,96.42
2018-09-22T01:57:24.235Z,96.27
2018-09-22T01:58:24.200Z,96.80
2018-09-22T01:59:24.144Z,96.80
2018-09-22T02:00:24.098Z,96.89
2018-09-22T02:01:24.036Z,96.66
2018-09-22T02:02:23.995Z,96.51
2018-09-22T02:03:23.954Z,96.89
2018-09-22T02:04:23.909Z,96.70
2018-09-22T02:05:23.881Z,96.22
2018-09-22T02:06:23.831Z,96.32
2018-09-22T02:07:23.775Z,96.51
2018-09-22T02:08:23.736Z,96.46
2018-09-22T02:09:23.704Z,96.12
2018-09-22T02:10:23.627Z,96.80
2018-09-22T02:11:23.587Z,96.80
2018-09-22T02:12:23.546Z,96.51
2018-09-22T02:13:23.507Z,96.51
2018-09-22T02:14:23.456Z,96.80
2018-09-22T02:15:23.411Z,96.27
2018-09-22T02:16:23.359Z,96.32
2018-09-22T02:17:23.311Z,96.61
2018-09-22T02:18:23.277Z,96.51
2018-09-22T02:19:23.390Z,96.89
2018-09-22T02:20:23.194Z,96.99
2018-09-22T02:21:23.131Z,97.09
2018-09-22T02:22:23.084Z,96.89
2018-09-22T02:23:23.032Z,96.51
2018-09-22T02:24:22.994Z,96.80
2018-09-22T02:25:22.957Z,96.80
2018-09-22T02:26:22.903Z,96.61
2018-09-22T02:27:22.859Z,96.42
2018-09-22T02:28:22.825Z,96.22
2018-09-22T02:29:22.759Z,96.22
2018-09-22T02:30:22.735Z,96.32
2018-09-22T02:31:22.692Z,96.32
2018-09-22T02:32:22.629Z,96.32
2018-09-22T02:33:22.579Z,96.99
2018-09-22T02:34:22.539Z,97.38
2018-09-22T02:35:22.488Z,97.33
2018-09-22T02:36:22.440Z,97.76
2018-09-22T02:37:22.401Z,97.67
2018-09-22T02:38:22.357Z,97.76
2018-09-22T02:39:22.300Z,97.67
2018-09-22T02:40:22.261Z,97.19
2018-09-22T02:41:22.236Z,97.72
2018-09-22T02:42:22.158Z,97.67
2018-09-22T02:43:22.118Z,97.76
2018-09-22T02:44:22.094Z,97.76
2018-09-22T02:45:22.043Z,98.15
2018-09-22T02:46:21.991Z,97.28
2018-09-22T02:47:21.963Z,97.19
2018-09-22T02:48:21.883Z,97.28
2018-09-22T02:49:21.847Z,97.47
2018-09-22T02:50:21.816Z,97.28
2018-09-22T02:51:21.757Z,97.04
2018-09-22T02:52:21.710Z,97.72
2018-09-22T02:53:21.660Z,97.62
2018-09-22T02:54:21.624Z,97.04
2018-09-22T02:55:21.579Z,97.72
2018-09-22T02:56:21.527Z,97.91
2018-09-22T02:57:21.488Z,97.91
2018-09-22T02:58:21.440Z,97.81
2018-09-22T02:59:21.389Z,98.19
2018-09-22T03:00:21.351Z,98.87
2018-09-22T03:01:21.286Z,98.49
2018-09-22T03:02:21.258Z,98.97
2018-09-22T03:03:21.193Z,99.06
2018-09-22T03:04:21.161Z,98.39
2018-09-22T03:05:21.102Z,99.06
2018-09-22T03:06:21.072Z,99.16
2018-09-22T03:07:21.014Z,98.68
2018-09-22T03:08:20.985Z,98.97
2018-09-22T03:09:20.924Z,99.16
2018-09-22T03:10:20.917Z,99.06
2018-09-22T03:11:20.835Z,98.58
2018-09-22T03:12:20.778Z,99.01
2018-09-22T03:13:20.758Z,98.82
2018-09-22T03:14:20.687Z,99.11
2018-09-22T03:15:20.696Z,99.30
2018-09-22T03:16:20.618Z,99.59
2018-09-22T03:17:20.571Z,99.40
2018-09-22T03:18:20.541Z,99.59
2018-09-22T03:19:20.474Z,98.82
2018-09-22T03:20:20.424Z,99.49
2018-09-22T03:21:20.373Z,99.01
2018-09-22T03:22:20.324Z,99.44
2018-09-22T03:23:20.277Z,99.11
2018-09-22T03:24:20.243Z,99.40
2018-09-22T03:25:20.197Z,99.88
2018-09-22T03:26:20.144Z,99.88
2018-09-22T03:27:20.103Z,99.98
2018-09-22T03:28:20.060Z,99.49
2018-09-22T03:29:20.014Z,99.98
2018-09-22T03:30:19.965Z,99.59
2018-09-22T03:31:19.908Z,99.59
2018-09-22T03:32:19.869Z,99.40
2018-09-22T03:33:19.819Z,98.92
2018-09-22T03:34:19.773Z,99.49
2018-09-22T03:35:19.731Z,99.99
2018-09-22T03:36:19.681Z,99.21
2018-09-22T03:37:19.641Z,99.40
2018-09-22T03:38:19.613Z,99.30
2018-09-22T03:39:19.564Z,99.69
2018-09-22T03:40:19.508Z,99.78
2018-09-22T03:41:19.455Z,99.78
2018-09-22T03:42:19.403Z,99.88
2018-09-22T03:43:19.358Z,99.99
2018-09-22T03:44:19.336Z,99.99
2018-09-22T03:45:19.296Z,99.99
2018-09-22T03:46:19.221Z,99.99
2018-09-22T03:47:19.204Z,99.99
2018-09-22T03:48:19.140Z,99.69
2018-09-22T03:49:19.097Z,99.88
2018-09-22T03:50:19.033Z,99.98
2018-09-22T03:51:18.980Z,99.69
2018-09-22T03:52:18.953Z,99.30
2018-09-22T03:53:18.886Z,99.49
2018-09-22T03:54:18.888Z,99.30
2018-09-22T03:55:18.820Z,99.30
2018-09-22T03:56:18.765Z,99.40
2018-09-22T03:57:18.710Z,99.40
2018-09-22T03:58:18.668Z,99.59
2018-09-22T03:59:18.622Z,99.40
2018-09-22T04:00:18.572Z,99.59
2018-09-22T04:01:18.525Z,99.40
2018-09-22T04:02:18.469Z,99.78
2018-09-22T04:03:18.432Z,99.59
2018-09-22T04:04:18.390Z,99.98
2018-09-22T04:05:18.348Z,99.88
2018-09-22T04:06:18.305Z,99.98
2018-09-22T04:07:18.235Z,99.88
2018-09-22T04:08:18.196Z,99.98
2018-09-22T04:09:18.162Z,99.78
2018-09-22T04:10:18.104Z,99.99
2018-09-22T04:11:18.075Z,99.99
2018-09-22T04:12:18.004Z,99.59
2018-09-22T04:13:18.011Z,99.99
2018-09-22T04:14:17.938Z,99.59
2018-09-22T04:15:17.884Z,99.99
2018-09-22T04:16:17.837Z,99.88
2018-09-22T04:17:17.799Z,99.98
2018-09-22T04:18:17.740Z,99.40
2018-09-22T04:19:17.700Z,99.98
2018-09-22T04:20:17.645Z,99.99
2018-09-22T04:21:17.609Z,99.59
2018-09-22T04:22:17.552Z,98.72
2018-09-22T04:23:17.495Z,98.72
2018-09-22T04:24:17.463Z,98.82
2018-09-22T04:25:17.421Z,99.11
2018-09-22T04:26:17.367Z,99.59
2018-09-22T04:27:17.329Z,99.69
2018-09-22T04:28:17.269Z,99.99
2018-09-22T04:29:17.223Z,99.73
2018-09-22T04:30:17.202Z,99.98
2018-09-22T04:31:17.144Z,99.99
2018-09-22T04:32:17.078Z,99.54
2018-09-22T04:33:17.101Z,99.99
2018-09-22T04:34:17.004Z,99.54
2018-09-22T04:35:16.961Z,99.99
2018-09-22T04:36:16.909Z,99.93
2018-09-22T04:37:16.873Z,99.54
2018-09-22T04:38:16.810Z,99.59
2018-09-22T04:39:16.764Z,99.35
2018-09-22T04:40:16.720Z,99.44
2018-09-22T04:41:16.677Z,99.99
2018-09-22T04:42:16.625Z,99.99
2018-09-22T04:43:16.585Z,99.99
2018-09-22T04:44:16.533Z,99.99
2018-09-22T04:45:16.496Z,99.99
2018-09-22T04:46:16.435Z,99.99
2018-09-22T04:47:16.395Z,99.99
2018-09-22T04:48:16.334Z,99.99
2018-09-22T04:49:16.307Z,99.99
2018-09-22T04:50:16.265Z,99.99
2018-09-22T04:51:16.210Z,99.99
2018-09-22T04:52:16.181Z,99.99
2018-09-22T04:53:16.126Z,99.99
2018-09-22T04:54:16.075Z,99.99
2018-09-22T04:55:16.026Z,99.99
2018-09-22T04:56:15.997Z,99.99
2018-09-22T04:57:15.924Z,99.99
2018-09-22T04:58:15.870Z,99.99
2018-09-22T04:59:15.839Z,99.99
2018-09-22T05:00:15.813Z,99.99
2018-09-22T05:01:15.733Z,99.64
2018-09-22T05:02:15.693Z,99.99
2018-09-22T05:03:15.657Z,99.99
2018-09-22T05:04:15.637Z,99.99
2018-09-22T05:05:15.560Z,99.99
2018-09-22T05:06:15.509Z,99.99
2018-09-22T05:07:15.467Z,99.99
2018-09-22T05:08:15.425Z,99.99
2018-09-22T05:09:15.370Z,99.99
2018-09-22T05:10:15.344Z,99.99
2018-09-22T05:11:15.282Z,99.99
2018-09-22T05:12:15.257Z,99.99
2018-09-22T05:13:15.189Z,99.99
2018-09-22T05:14:15.144Z,99.99
2018-09-22T05:15:15.079Z,99.99
2018-09-22T05:16:15.049Z,99.99
2018-09-22T05:17:15.009Z,99.99
2018-09-22T05:18:14.944Z,99.99
2018-09-22T05:19:14.915Z,99.99
2018-09-22T05:20:14.868Z,99.99
2018-09-22T05:21:14.800Z,99.99
2018-09-22T05:22:14.806Z,99.99
2018-09-22T05:23:14.731Z,99.99
2018-09-22T05:24:14.681Z,99.99
2018-09-22T05:25:14.639Z,99.99
2018-09-22T05:26:14.585Z,99.99
2018-09-22T05:27:14.530Z,99.99
2018-09-22T05:28:14.485Z,99.99
2018-09-22T05:29:14.439Z,99.99
2018-09-22T05:30:14.408Z,99.99
2018-09-22T05:31:14.345Z,99.99
2018-09-22T05:32:14.329Z,99.99
2018-09-22T05:33:14.259Z,99.99
2018-09-22T05:34:14.210Z,99.99
2018-09-22T05:35:14.174Z,99.99
2018-09-22T05:36:14.128Z,99.99
2018-09-22T05:37:14.071Z,99.99
2018-09-22T05:38:14.051Z,99.99
2018-09-22T05:39:13.999Z,99.99
2018-09-22T05:40:13.934Z,99.99
2018-09-22T05:41:13.875Z,99.99
2018-09-22T05:42:13.847Z,99.99
2018-09-22T05:43:13.792Z,99.99
2018-09-22T05:44:13.743Z,99.99
2018-09-22T05:45:13.713Z,99.99
2018-09-22T05:46:13.648Z,99.99
2018-09-22T05:47:13.595Z,99.99
2018-09-22T05:48:13.551Z,99.99
2018-09-22T05:49:13.517Z,99.99
2018-09-22T05:50:13.466Z,99.99
2018-09-22T05:51:13.429Z,99.99
2018-09-22T05:52:13.368Z,99.99
2018-09-22T05:53:13.324Z,99.99
2018-09-22T05:54:13.280Z,99.99
2018-09-22T05:55:13.241Z,99.99
2018-09-22T05:56:13.178Z,99.99
2018-09-22T05:57:13.141Z,99.99
2018-09-22T05:58:13.179Z,99.99
2018-09-22T05:59:13.056Z,99.99
2018-09-22T06:00:13.009Z,99.99
2018-09-22T06:01:12.973Z,99.99
2018-09-22T06:02:12.927Z,99.99
2018-09-22T06:03:12.854Z,99.99
2018-09-22T06:04:12.803Z,99.99
2018-09-22T06:05:12.778Z,99.99
2018-09-22T06:06:12.729Z,99.99
2018-09-22T06:07:12.696Z,99.99
2018-09-22T06:08:12.623Z,99.99
2018-09-22T06:09:12.583Z,99.99
2018-09-22T06:10:12.555Z,99.99
2018-09-22T06:11:12.501Z,99.99
2018-09-22T06:12:12.443Z,99.99
2018-09-22T06:13:12.419Z,99.99
2018-09-22T06:14:12.354Z,99.99
2018-09-22T06:15:12.315Z,99.99
2018-09-22T06:16:12.258Z,99.99
2018-09-22T06:17:12.204Z,99.99
2018-09-22T06:18:12.199Z,99.99
2018-09-22T06:19:12.121Z,99.99
2018-09-22T06:20:12.086Z,99.99
2018-09-22T06:21:12.012Z,99.99
2018-09-22T06:22:11.972Z,99.99
2018-09-22T06:23:12.047Z,99.99
2018-09-22T06:24:11.886Z,99.99
2018-09-22T06:25:11.850Z,99.99
2018-09-22T06:26:11.805Z,99.99
2018-09-22T06:27:11.738Z,99.99
2018-09-22T06:28:11.684Z,99.99
2018-09-22T06:29:11.651Z,99.99
2018-09-22T06:30:11.603Z,99.99
2018-09-22T06:31:11.564Z,99.99
2018-09-22T06:32:11.521Z,99.99
2018-09-22T06:33:11.447Z,99.99
2018-09-22T06:34:11.413Z,99.99
2018-09-22T06:35:11.383Z,99.99
2018-09-22T06:36:11.325Z,99.99
2018-09-22T06:37:11.294Z,99.99
2018-09-22T06:38:11.229Z,99.99
2018-09-22T06:39:11.183Z,99.99
2018-09-22T06:40:11.140Z,99.99
2018-09-22T06:41:11.073Z,99.99
2018-09-22T06:42:11.054Z,99.99
2018-09-22T06:43:10.987Z,99.99
2018-09-22T06:44:10.941Z,99.99
2018-09-22T06:45:10.913Z,99.99
2018-09-22T06:46:10.869Z,99.99
2018-09-22T06:47:10.809Z,99.99
2018-09-22T06:48:10.789Z,99.99
2018-09-22T06:49:10.752Z,99.99
2018-09-22T06:50:10.672Z,99.99
2018-09-22T06:51:10.651Z,99.99
2018-09-22T06:52:10.589Z,99.99
2018-09-22T06:53:10.555Z,99.99
2018-09-22T06:54:10.478Z,99.99
2018-09-22T06:55:10.442Z,99.99
2018-09-22T06:56:10.393Z,99.99
2018-09-22T06:57:10.344Z,99.99
2018-09-22T06:58:10.293Z,99.99
2018-09-22T06:59:10.276Z,99.99
2018-09-22T07:00:10.206Z,99.99
2018-09-22T07:01:10.150Z,99.99
2018-09-22T07:02:10.144Z,99.99
2018-09-22T07:03:10.091Z,99.99
2018-09-22T07:04:10.012Z,99.99
2018-09-22T07:05:09.976Z,99.99
2018-09-22T07:06:09.939Z,99.99
2018-09-22T07:07:09.872Z,99.99
2018-09-22T07:08:09.830Z,99.99
2018-09-22T07:09:09.785Z,99.99
2018-09-22T07:10:09.750Z,99.99
2018-09-22T07:11:09.695Z,99.99
2018-09-22T07:12:09.655Z,99.99
2018-09-22T07:13:09.603Z,99.99
2018-09-22T07:14:09.556Z,99.99
2018-09-22T07:15:09.492Z,99.99
2018-09-22T07:16:09.463Z,99.99
2018-09-22T07:17:09.435Z,99.99
2018-09-22T07:18:09.372Z,99.99
2018-09-22T07:19:09.323Z,99.99
2018-09-22T07:20:09.282Z,99.99
2018-09-22T07:21:09.230Z,99.99
2018-09-22T07:22:09.184Z,99.99
2018-09-22T07:23:09.140Z,99.99
2018-09-22T07:24:09.082Z,99.99
2018-09-22T07:25:09.040Z,99.99
2018-09-22T07:26:08.989Z,99.99
2018-09-22T07:27:08.932Z,99.99
2018-09-22T07:28:08.895Z,99.99
2018-09-22T07:29:08.843Z,99.99
2018-09-22T07:30:08.819Z,99.99
2018-09-22T07:31:08.766Z,99.99
2018-09-22T07:32:08.714Z,99.99
2018-09-22T07:33:08.658Z,99.99
2018-09-22T07:34:08.618Z,99.99
2018-09-22T07:35:08.572Z,99.99
2018-09-22T07:36:08.512Z,99.99
2018-09-22T07:37:08.469Z,99.99
2018-09-22T07:38:08.469Z,99.99
2018-09-22T07:39:08.408Z,99.99
2018-09-22T07:40:08.356Z,99.99
2018-09-22T07:41:08.297Z,99.99
2018-09-22T07:42:08.229Z,99.99
2018-09-22T07:43:08.205Z,99.99
2018-09-22T07:44:08.163Z,99.99
2018-09-22T07:45:08.132Z,99.99
2018-09-22T07:46:08.055Z,99.99
2018-09-22T07:47:07.999Z,99.99
2018-09-22T07:48:07.978Z,99.99
2018-09-22T07:49:07.922Z,99.99
2018-09-22T07:50:07.878Z,99.99
2018-09-22T07:51:07.855Z,99.99
2018-09-22T07:52:07.783Z,99.99
2018-09-22T07:53:07.751Z,99.99
2018-09-22T07:54:07.685Z,99.99
2018-09-22T07:55:07.641Z,99.99
2018-09-22T07:56:07.591Z,99.99
2018-09-22T07:57:07.583Z,99.99
2018-09-22T07:58:07.505Z,99.99
2018-09-22T07:59:07.476Z,99.99
2018-09-22T08:00:07.403Z,99.99
2018-09-22T08:01:07.369Z,99.99
2018-09-22T08:02:07.308Z,99.99
2018-09-22T08:03:07.259Z,99.99
2018-09-22T08:04:07.212Z,99.99
2018-09-22T08:05:07.171Z,99.99
2018-09-22T08:06:07.124Z,99.99
2018-09-22T08:07:07.080Z,99.99
2018-09-22T08:08:07.031Z,99.99
2018-09-22T08:09:07.001Z,99.99
2018-09-22T08:10:06.933Z,99.99
2018-09-22T08:11:06.889Z,99.99
2018-09-22T08:12:06.878Z,99.99
2018-09-22T08:13:06.792Z,99.99
2018-09-22T08:14:06.748Z,99.99
2018-09-22T08:15:06.733Z,99.99
2018-09-22T08:16:06.656Z,99.99
2018-09-22T08:17:06.596Z,99.99
2018-09-22T08:18:06.547Z,99.99
2018-09-22T08:19:06.517Z,99.99
2018-09-22T08:20:06.466Z,99.99
2018-09-22T08:21:06.420Z,99.99
2018-09-22T08:22:06.372Z,99.99
2018-09-22T08:23:06.335Z,99.99
2018-09-22T08:24:06.282Z,99.99
2018-09-22T08:25:06.290Z,99.99
2018-09-22T08:26:06.187Z,99.99
2018-09-22T08:27:06.137Z,99.99
2018-09-22T08:28:06.090Z,99.99
2018-09-22T08:29:06.045Z,99.99
2018-09-22T08:30:05.990Z,99.99
2018-09-22T08:31:05.951Z,99.99
2018-09-22T08:32:05.908Z,99.99
2018-09-22T08:33:05.842Z,99.99
2018-09-22T08:34:05.802Z,99.99
2018-09-22T08:35:05.775Z,99.99
2018-09-22T08:36:05.799Z,99.99
2018-09-22T08:37:05.832Z,99.99
2018-09-22T08:38:05.642Z,99.99
2018-09-22T08:39:05.568Z,99.99
2018-09-22T08:40:05.533Z,99.99
2018-09-22T08:41:05.480Z,99.99
2018-09-22T08:42:05.427Z,99.99
2018-09-22T08:43:05.392Z,99.99
2018-09-22T08:44:05.328Z,99.99
2018-09-22T08:45:05.292Z,99.99
2018-09-22T08:46:05.243Z,99.99
2018-09-22T08:47:05.205Z,99.99
2018-09-22T08:48:05.140Z,99.99
2018-09-22T08:49:05.108Z,99.99
2018-09-22T08:50:05.122Z,99.99
2018-09-22T08:51:05.030Z,99.99
2018-09-22T08:52:04.954Z,99.99
2018-09-22T08:53:04.915Z,99.99
2018-09-22T08:54:04.862Z,99.99
2018-09-22T08:55:04.829Z,99.99
2018-09-22T08:56:04.756Z,99.99
2018-09-22T08:57:04.735Z,99.99
2018-09-22T08:58:04.689Z,99.99
2018-09-22T08:59:04.621Z,99.99
2018-09-22T09:00:04.594Z,99.99
2018-09-22T09:01:04.546Z,99.99
2018-09-22T09:02:04.492Z,99.99
2018-09-22T09:03:07.223Z,99.99
2018-09-22T09:04:07.099Z,99.99
2018-09-22T09:05:07.224Z,99.99
2018-09-22T09:06:07.005Z,99.99
2018-09-22T09:07:06.962Z,99.99
2018-09-22T09:08:06.917Z,99.99
2018-09-22T09:09:06.860Z,99.99
2018-09-22T09:10:06.836Z,99.99
2018-09-22T09:11:06.798Z,99.99
2018-09-22T09:12:06.740Z,99.99
2018-09-22T09:13:06.694Z,99.99
2018-09-22T09:14:06.685Z,99.99
2018-09-22T09:15:06.601Z,99.99
2018-09-22T09:16:06.579Z,99.99
2018-09-22T09:17:06.603Z,99.99
2018-09-22T09:18:06.428Z,99.99
2018-09-22T09:19:06.393Z,99.99
2018-09-22T09:20:06.344Z,99.99
2018-09-22T09:21:06.306Z,99.99
2018-09-22T09:22:06.239Z,99.99
2018-09-22T09:23:06.199Z,99.99
2018-09-22T09:24:06.165Z,99.99
2018-09-22T09:25:06.119Z,99.99
2018-09-22T09:26:06.069Z,99.99
2018-09-22T09:27:06.020Z,99.99
2018-09-22T09:28:05.987Z,99.99
2018-09-22T09:29:05.931Z,99.99
2018-09-22T09:30:05.891Z,99.99
2018-09-22T09:31:05.832Z,99.99
2018-09-22T09:32:05.803Z,99.99
2018-09-22T09:33:05.733Z,99.99
2018-09-22T09:34:05.725Z,99.99
2018-09-22T09:35:05.664Z,99.99
2018-09-22T09:36:05.601Z,99.99
2018-09-22T09:37:05.560Z,99.99
2018-09-22T09:38:05.508Z,99.99
2018-09-22T09:39:05.469Z,99.99
2018-09-22T09:40:05.423Z,99.99
2018-09-22T09:41:05.380Z,99.99
2018-09-22T09:42:05.333Z,99.99
2018-09-22T09:43:05.305Z,99.59
2018-09-22T09:44:05.235Z,99.99
2018-09-22T09:45:05.190Z,99.99
2018-09-22T09:46:05.150Z,99.98
2018-09-22T09:47:05.095Z,99.99
2018-09-22T09:48:05.041Z,99.99
2018-09-22T09:49:05.013Z,99.99
2018-09-22T09:50:04.965Z,99.99
2018-09-22T09:51:04.905Z,99.99
2018-09-22T09:52:04.881Z,99.98
2018-09-22T09:53:04.829Z,99.99
2018-09-22T09:54:04.775Z,99.99
2018-09-22T09:55:04.740Z,99.99
2018-09-22T09:56:04.696Z,99.99
2018-09-22T09:57:04.655Z,99.99
2018-09-22T09:58:04.602Z,99.78
2018-09-22T09:59:04.568Z,99.59
2018-09-22T10:00:04.525Z,99.83
2018-09-22T10:01:04.475Z,99.99
2018-09-22T10:02:04.411Z,99.99
2018-09-22T10:03:04.368Z,99.73
2018-09-22T10:04:04.349Z,99.35
2018-09-22T10:05:04.284Z,99.06
2018-09-22T10:06:04.248Z,98.96
2018-09-22T10:07:04.195Z,99.01
2018-09-22T10:08:04.144Z,99.30
2018-09-22T10:09:04.103Z,98.44
2018-09-22T10:10:04.063Z,97.09
2018-09-22T10:11:04.028Z,96.22
2018-09-22T10:12:03.988Z,95.60
2018-09-22T10:13:03.928Z,95.60
2018-09-22T10:14:03.870Z,94.78
2018-09-22T10:15:03.852Z,92.76
2018-09-22T10:16:03.797Z,91.74
2018-09-22T10:17:03.783Z,92.03
2018-09-22T10:18:03.714Z,90.78
2018-09-22T10:19:03.678Z,90.24
2018-09-22T10:20:03.705Z,88.22
2018-09-22T10:21:03.597Z,87.01
2018-09-22T10:22:03.563Z,85.56
2018-09-22T10:23:03.519Z,84.64
2018-09-22T10:24:03.463Z,84.06
2018-09-22T10:25:03.445Z,83.09
2018-09-22T10:26:12.876Z,82.36
2018-09-22T10:27:12.907Z,81.73
2018-09-22T10:28:12.886Z,80.66
2018-09-22T10:29:12.837Z,79.89
2018-09-22T10:30:12.813Z,78.92
2018-09-22T10:31:12.790Z,78.58
2018-09-22T10:32:12.741Z,78.38
2018-09-22T10:33:12.726Z,77.51
2018-09-22T10:34:12.653Z,77.07
2018-09-22T10:35:12.633Z,77.17
2018-09-22T10:36:12.596Z,77.17
2018-09-22T10:37:12.560Z,76.68
2018-09-22T10:38:12.530Z,76.39
2018-09-22T10:39:12.496Z,77.75
2018-09-22T10:40:12.457Z,77.13
2018-09-22T10:41:12.419Z,77.32
2018-09-22T10:42:12.388Z,77.71
2018-09-22T10:43:12.350Z,78.29
2018-09-22T10:44:12.311Z,78.29
2018-09-22T10:45:12.320Z,77.80
2018-09-22T10:46:12.227Z,77.51
2018-09-22T10:47:12.191Z,78.34
2018-09-22T10:48:12.144Z,79.25
2018-09-22T10:49:12.107Z,78.96
2018-09-22T10:50:12.077Z,79.22
2018-09-22T10:51:12.030Z,79.60
2018-09-22T10:52:11.989Z,80.28
2018-09-22T10:53:11.939Z,79.99
2018-09-22T10:54:11.899Z,79.99
2018-09-22T10:55:11.878Z,79.50
2018-09-22T10:56:11.826Z,78.15
2018-09-22T10:57:11.783Z,79.12
2018-09-22T10:58:11.740Z,80.38
2018-09-22T10:59:11.703Z,80.57
2018-09-22T11:00:11.680Z,80.18
2018-09-22T11:01:11.638Z,79.99
2018-09-22T11:02:11.584Z,79.99
2018-09-22T11:03:11.550Z,80.08
2018-09-22T11:04:11.504Z,79.22
2018-09-22T11:05:11.448Z,78.92
2018-09-22T11:06:11.405Z,77.67
2018-09-22T11:07:11.373Z,77.76
2018-09-22T11:08:11.340Z,77.57
2018-09-22T11:09:11.293Z,77.57
2018-09-22T11:10:11.228Z,78.54
2018-09-22T11:11:11.208Z,78.25
2018-09-22T11:12:11.139Z,78.34
2018-09-22T11:13:11.123Z,78.83
2018-09-22T11:14:11.051Z,78.54
2018-09-22T11:15:11.028Z,78.06
2018-09-22T11:16:10.980Z,77.57
2018-09-22T11:17:10.932Z,77.57
2018-09-22T11:18:10.919Z,77.00
2018-09-22T11:19:10.854Z,76.70
2018-09-22T11:20:10.840Z,76.70
2018-09-22T11:21:10.751Z,76.90
2018-09-22T11:22:10.714Z,76.22
2018-09-22T11:23:10.676Z,76.03
2018-09-22T11:24:10.650Z,76.51
2018-09-22T11:25:10.577Z,77.38
2018-09-22T11:26:10.545Z,77.48
2018-09-22T11:27:10.511Z,77.28
2018-09-22T11:28:10.460Z,77.03
2018-09-22T11:29:10.422Z,76.70
2018-09-22T11:30:10.372Z,76.22
2018-09-22T11:31:10.333Z,76.42
2018-09-22T11:32:10.281Z,76.86
2018-09-22T11:33:10.241Z,76.86
2018-09-22T11:34:10.197Z,76.61
2018-09-22T11:35:10.156Z,75.84
2018-09-22T11:36:10.135Z,75.16
2018-09-22T11:37:10.076Z,74.58
2018-09-22T11:38:10.079Z,74.48
2018-09-22T11:39:09.991Z,74.29
2018-09-22T11:40:09.931Z,74.23
2018-09-22T11:41:09.896Z,73.94
2018-09-22T11:42:09.862Z,73.36
2018-09-22T11:43:09.793Z,73.36
2018-09-22T11:44:09.774Z,72.39
2018-09-22T11:45:09.731Z,72.88
2018-09-22T11:46:09.727Z,72.97
2018-09-22T11:47:09.635Z,73.46
2018-09-22T11:48:09.587Z,71.81
2018-09-22T11:49:09.548Z,72.49
2018-09-22T11:50:09.521Z,73.16
2018-09-22T11:51:09.460Z,73.74
2018-09-22T11:52:09.427Z,73.36
2018-09-22T11:53:09.392Z,72.20
2018-09-22T11:54:09.322Z,71.81
2018-09-22T11:55:09.294Z,71.33
2018-09-22T11:56:09.253Z,71.14
2018-09-22T11:57:09.203Z,70.56
2018-09-22T11:58:09.141Z,71.14
2018-09-22T11:59:09.114Z,71.68
2018-09-22T12:00:09.084Z,72.06
2018-09-22T12:01:09.023Z,71.58
2018-09-22T12:02:08.980Z,71.42
2018-09-22T12:03:08.945Z,70.81
2018-09-22T12:04:08.913Z,71.04
2018-09-22T12:05:08.843Z,71.33
2018-09-22T12:06:08.969Z,71.14
2018-09-22T12:07:08.765Z,71.91
2018-09-22T12:08:08.719Z,71.62
2018-09-22T12:09:08.673Z,72.00
2018-09-22T12:10:08.620Z,71.14
2018-09-22T12:11:08.604Z,71.68
2018-09-22T12:12:08.538Z,72.16
2018-09-22T12:13:08.488Z,71.58
2018-09-22T12:14:08.520Z,72.36
2018-09-22T12:15:08.423Z,72.39
2018-09-22T12:16:08.368Z,70.46
2018-09-22T12:17:08.315Z,70.17
2018-09-22T12:18:08.276Z,70.56
2018-09-22T12:19:08.225Z,71.14
2018-09-22T12:20:08.205Z,69.49
2018-09-22T12:21:08.148Z,68.33
2018-09-22T12:22:08.105Z,68.52
2018-09-22T12:23:08.074Z,68.24
2018-09-22T12:24:08.025Z,68.52
2018-09-22T12:25:07.975Z,68.59
2018-09-22T12:26:07.975Z,69.20
2018-09-22T12:27:07.875Z,69.01
2018-09-22T12:28:07.860Z,68.62
2018-09-22T12:29:07.792Z,67.08
2018-09-22T12:30:07.746Z,66.82
2018-09-22T12:31:07.702Z,67.98
2018-09-22T12:32:07.683Z,66.24
2018-09-22T12:33:07.620Z,66.82
2018-09-22T12:34:07.571Z,66.72
2018-09-22T12:35:07.540Z,66.56
2018-09-22T12:36:07.498Z,65.27
2018-09-22T12:37:07.459Z,64.62
2018-09-22T12:38:07.402Z,64.24
2018-09-22T12:39:07.380Z,64.24
2018-09-22T12:40:07.326Z,64.34
2018-09-22T12:41:07.273Z,64.04
2018-09-22T12:42:07.239Z,64.27
2018-09-22T12:43:07.190Z,63.49
2018-09-22T12:44:07.167Z,63.79
2018-09-22T12:45:07.136Z,62.69
2018-09-22T12:46:07.097Z,63.76
2018-09-22T12:47:07.035Z,62.69
2018-09-22T12:48:06.977Z,62.88
2018-09-22T12:49:06.931Z,64.04
2018-09-22T12:50:06.889Z,63.08
2018-09-22T12:51:06.849Z,63.82
2018-09-22T12:52:06.806Z,63.82